Time;durP1;ratioP1;P1;durP2;ratioP2;P2;SDS_P1;SDS_P2;PMS_P1;PMS_P2;Temp;Humidity;BMP_temperature;BMP_pressure;BME280_temperature;BME280_humidity;BME280_pressure;Samples;Min_cycle;Max_cycle;Signal;HPM_P1;HPM_P2
2022/01/15 00:00:36;;;;;;;70.45;40.05;;;-0.90;43.30;;;;;;5058760;28;20139;-62
2022/01/15 00:03:06;;;;;;;66.50;38.42;;;-0.90;43.20;;;;;;5058832;28;20524;-62
2022/01/15 00:05:35;;;;;;;68.22;38.15;;;-0.90;43.40;;;;;;5056925;28;20323;-62
2022/01/15 00:08:05;;;;;;;63.40;38.22;;;-0.90;43.40;;;;;;5048307;28;20400;-63
2022/01/15 00:10:38;;;;;;;68.78;37.90;;;-0.90;43.70;;;;;;5058628;28;20040;-64
2022/01/15 00:13:10;;;;;;;62.30;37.67;;;-0.90;43.70;;;;;;5057851;28;20127;-62
2022/01/15 00:15:43;;;;;;;69.75;37.95;;;-0.90;43.70;;;;;;5057735;28;20388;-62
2022/01/15 00:18:13;;;;;;;70.50;37.70;;;-1.00;43.40;;;;;;5051471;28;20152;-62
2022/01/15 00:20:43;;;;;;;71.63;38.47;;;-1.00;43.50;;;;;;5061770;28;20087;-63
2022/01/15 00:23:11;;;;;;;75.13;39.05;;;-1.00;43.60;;;;;;5060341;28;20113;-62
2022/01/15 00:25:41;;;;;;;65.10;37.03;;;-1.10;43.60;;;;;;5061836;28;20036;-63
2022/01/15 00:28:09;;;;;;;63.38;36.00;;;-1.00;43.80;;;;;;5054203;28;20064;-62
2022/01/15 00:30:37;;;;;;;69.25;37.38;;;-1.00;44.70;;;;;;5055727;28;20496;-62
2022/01/15 00:33:06;;;;;;;61.38;35.60;;;-0.90;44.10;;;;;;5056073;28;20036;-62
2022/01/15 00:35:37;;;;;;;58.35;34.90;;;-0.90;44.20;;;;;;5055373;28;20060;-62
2022/01/15 00:38:06;;;;;;;62.17;34.15;;;-0.90;44.40;;;;;;5053279;28;20187;-62
2022/01/15 00:40:33;;;;;;;59.30;34.67;;;-0.90;44.20;;;;;;5061007;28;20119;-62
2022/01/15 00:43:03;;;;;;;64.35;37.50;;;-1.00;43.70;;;;;;5054370;28;20680;-62
2022/01/15 00:45:33;;;;;;;76.40;38.90;;;-1.00;44.10;;;;;;5059143;28;20195;-62
2022/01/15 00:48:02;;;;;;;69.93;38.60;;;-1.10;43.60;;;;;;5048168;28;20068;-62
2022/01/15 00:50:30;;;;;;;71.95;40.10;;;-1.10;43.30;;;;;;5061142;28;20555;-63
2022/01/15 00:52:58;;;;;;;65.75;38.53;;;-1.20;43.00;;;;;;5059466;28;20136;-62
2022/01/15 00:55:29;;;;;;;65.10;38.30;;;-1.30;42.30;;;;;;5060236;28;20048;-63
2022/01/15 00:57:58;;;;;;;61.00;34.55;;;-1.40;42.50;;;;;;5055648;28;20076;-62
2022/01/15 01:00:28;;;;;;;65.78;35.78;;;-1.40;42.70;;;;;;5061034;28;20045;-63
2022/01/15 01:02:56;;;;;;;60.33;33.75;;;-1.50;42.80;;;;;;5060742;28;20182;-63
2022/01/15 01:05:24;;;;;;;57.28;33.67;;;-1.40;43.00;;;;;;5058858;28;20064;-63
2022/01/15 01:07:52;;;;;;;55.95;34.25;;;-1.40;43.00;;;;;;5055821;28;20076;-62
2022/01/15 01:10:48;;;;;;;58.88;32.00;;;-1.50;43.00;;;;;;5058036;28;20044;-62
2022/01/15 01:24:28;;;;;;;58.13;32.60;;;-1.60;43.80;;;;;;5036083;28;20653;-62
2022/01/15 01:27:00;;;;;;;59.45;32.80;;;-1.60;43.90;;;;;;5037019;28;20045;-62
2022/01/15 01:29:39;;;;;;;46.78;28.85;;;-1.60;44.10;;;;;;5046062;28;20373;-62
2022/01/15 01:32:15;;;;;;;52.15;30.65;;;-1.60;44.20;;;;;;5060758;28;20056;-63
2022/01/15 01:34:44;;;;;;;58.58;31.48;;;-1.60;44.40;;;;;;5055251;28;20055;-63
2022/01/15 01:37:16;;;;;;;51.22;31.63;;;-1.60;44.70;;;;;;5058212;28;20063;-62
2022/01/15 01:39:48;;;;;;;47.35;29.33;;;-1.60;44.70;;;;;;5052758;28;20043;-62
2022/01/15 01:42:37;;;;;;;51.70;30.55;;;-1.50;44.80;;;;;;5059262;28;20052;-62
2022/01/15 01:45:12;;;;;;;48.08;28.67;;;-1.50;44.70;;;;;;5051671;28;20052;-62
2022/01/15 01:47:42;;;;;;;;;;;-1.50;44.80;;;;;;5053155;28;20117;-62
2022/01/15 01:50:13;;;;;;;51.50;30.10;;;-1.50;44.90;;;;;;5050801;28;19934;-62
2022/01/15 01:52:44;;;;;;;49.22;29.42;;;-1.40;45.00;;;;;;5057812;28;20036;-62
2022/01/15 01:55:12;;;;;;;46.80;28.55;;;-1.40;45.10;;;;;;5064480;28;20041;-62
2022/01/15 01:57:41;;;;;;;46.85;27.48;;;-1.30;45.10;;;;;;5060934;28;20053;-63
2022/01/15 02:00:12;;;;;;;45.40;27.65;;;-1.30;45.00;;;;;;5053970;28;20866;-62
2022/01/15 02:02:43;;;;;;;46.20;26.50;;;-1.30;45.00;;;;;;5061624;28;20040;-63
2022/01/15 02:05:13;;;;;;;46.10;26.75;;;-1.40;44.70;;;;;;5057265;28;20118;-62
2022/01/15 02:07:41;;;;;;;46.03;27.13;;;-1.30;45.00;;;;;;5059076;28;20135;-63
2022/01/15 02:10:12;;;;;;;45.03;25.70;;;-1.30;45.00;;;;;;5059222;28;20080;-63
2022/01/15 02:12:40;;;;;;;45.83;26.77;;;-1.30;44.80;;;;;;5062644;28;20128;-63
2022/01/15 02:15:12;;;;;;;44.65;26.67;;;-1.30;44.30;;;;;;5062736;28;20114;-62
2022/01/15 02:17:40;;;;;;;43.85;25.25;;;-1.30;44.10;;;;;;5057468;28;20052;-62
2022/01/15 02:20:24;;;;;;;45.88;24.98;;;-1.30;44.30;;;;;;5059265;28;20179;-62
2022/01/15 02:25:43;;;;;;;40.60;24.73;;;-1.40;44.10;;;;;;5060959;28;20106;-61
2022/01/15 02:28:12;;;;;;;42.65;26.45;;;-1.40;43.70;;;;;;5060397;28;20551;-62
2022/01/15 02:30:42;;;;;;;44.80;24.85;;;-1.40;43.80;;;;;;5056779;28;20051;-63
2022/01/15 02:33:11;;;;;;;44.70;25.73;;;-1.40;43.60;;;;;;5055061;28;20694;-62
2022/01/15 02:35:40;;;;;;;47.47;26.83;;;-1.30;43.60;;;;;;5059706;28;20048;-64
2022/01/15 02:38:11;;;;;;;39.72;24.80;;;-1.30;43.80;;;;;;5056066;28;20053;-62
2022/01/15 02:40:40;;;;;;;43.50;26.58;;;-1.20;43.80;;;;;;5058100;28;20076;-62
2022/01/15 02:43:12;;;;;;;40.08;24.55;;;-1.20;43.50;;;;;;5057880;28;20056;-62
2022/01/15 02:45:43;;;;;;;42.60;24.42;;;-1.30;43.40;;;;;;5065122;28;20135;-62
2022/01/15 02:48:12;;;;;;;41.10;24.83;;;-1.30;43.30;;;;;;5060406;28;20302;-62
2022/01/15 02:50:42;;;;;;;38.55;23.98;;;-1.30;43.10;;;;;;5058754;28;20176;-62
2022/01/15 02:53:12;;;;;;;36.55;22.83;;;-1.20;43.40;;;;;;5060879;28;20113;-62
2022/01/15 02:55:42;;;;;;;34.63;21.38;;;-1.20;42.90;;;;;;5056277;28;20116;-63
2022/01/15 02:58:10;;;;;;;39.75;24.17;;;-1.30;42.40;;;;;;5056203;28;20112;-62
2022/01/15 03:00:42;;;;;;;39.88;24.30;;;-1.40;42.10;;;;;;5057805;28;20041;-63
2022/01/15 03:03:10;;;;;;;39.80;24.27;;;-1.50;42.40;;;;;;5060018;28;20049;-63
2022/01/15 03:05:40;;;;;;;42.92;25.15;;;-1.50;42.20;;;;;;5060463;28;20049;-61
2022/01/15 03:08:10;;;;;;;41.80;24.85;;;-1.50;42.50;;;;;;5057661;28;20047;-61
2022/01/15 03:10:38;;;;;;;37.25;24.05;;;-1.50;42.00;;;;;;5055896;28;20132;-61
2022/01/15 03:13:11;;;;;;;47.17;26.75;;;-1.60;42.30;;;;;;5058167;28;20098;-62
2022/01/15 03:15:39;;;;;;;47.22;27.95;;;-1.60;42.00;;;;;;5058294;28;20068;-62
2022/01/15 03:18:08;;;;;;;42.90;27.20;;;-1.60;41.80;;;;;;5059495;28;20048;-62
2022/01/15 03:20:36;;;;;;;44.38;28.75;;;-1.60;42.30;;;;;;5057433;28;20134;-62
2022/01/15 03:23:06;;;;;;;44.28;28.60;;;-1.60;42.00;;;;;;5059070;28;20120;-62
2022/01/15 03:25:34;;;;;;;46.80;28.90;;;-1.70;41.50;;;;;;5058255;28;20036;-62
2022/01/15 03:28:02;;;;;;;51.00;29.35;;;-1.70;41.80;;;;;;5059944;28;20047;-61
2022/01/15 03:30:30;;;;;;;52.17;29.95;;;-1.70;41.70;;;;;;5058602;28;20053;-61
2022/01/15 03:32:58;;;;;;;48.60;29.85;;;-1.70;41.80;;;;;;5055958;28;20044;-62
2022/01/15 03:35:26;;;;;;;48.28;29.52;;;-1.70;41.80;;;;;;5059738;28;20045;-62
2022/01/15 03:37:54;;;;;;;48.75;31.17;;;-1.70;42.20;;;;;;5060556;28;20164;-63
2022/01/15 03:40:24;;;;;;;52.35;31.58;;;-1.70;42.40;;;;;;5061248;28;20041;-63
2022/01/15 03:42:52;;;;;;;54.00;31.50;;;-1.70;41.80;;;;;;5061889;28;20075;-63
2022/01/15 03:45:20;;;;;;;51.72;31.40;;;-1.80;41.80;;;;;;5058731;28;20127;-63
2022/01/15 03:47:49;;;;;;;53.83;31.77;;;-1.80;41.80;;;;;;5060261;28;20040;-63
2022/01/15 03:50:19;;;;;;;52.55;30.38;;;-1.80;41.50;;;;;;5060480;28;20050;-62
2022/01/15 03:52:47;;;;;;;53.60;32.08;;;-1.80;41.80;;;;;;5058656;28;20040;-62
2022/01/15 03:55:18;;;;;;;62.00;34.28;;;-1.90;41.60;;;;;;5060748;28;20135;-62
2022/01/15 03:57:48;;;;;;;56.60;34.38;;;-1.90;42.00;;;;;;5057985;28;20064;-62
2022/01/15 04:00:18;;;;;;;59.28;32.50;;;-1.90;41.90;;;;;;5056652;28;20060;-62
2022/01/15 04:02:46;;;;;;;57.72;34.05;;;-1.90;42.30;;;;;;5055811;28;20136;-62
2022/01/15 04:05:15;;;;;;;64.57;35.78;;;-2.00;42.30;;;;;;5057901;28;20495;-62
2022/01/15 04:07:43;;;;;;;56.90;34.08;;;-2.00;42.00;;;;;;5054218;28;20106;-62
2022/01/15 04:10:13;;;;;;;63.15;34.50;;;-2.10;42.10;;;;;;5061530;28;20083;-63
2022/01/15 04:12:41;;;;;;;66.55;33.38;;;-2.10;42.00;;;;;;5057876;28;20148;-63
2022/01/15 04:15:13;;;;;;;83.07;32.13;;;-2.20;41.80;;;;;;5060428;28;21126;-63
2022/01/15 04:17:42;;;;;;;87.68;32.47;;;-2.30;42.10;;;;;;5061979;28;20056;-63
2022/01/15 04:20:11;;;;;;;61.35;33.88;;;-2.30;42.70;;;;;;5057536;28;20063;-63
2022/01/15 04:22:40;;;;;;;67.38;34.83;;;-2.30;42.70;;;;;;5056387;28;20122;-63
2022/01/15 04:25:10;;;;;;;86.30;36.17;;;-2.30;43.20;;;;;;5056462;28;20507;-63
2022/01/15 04:27:38;;;;;;;69.70;34.10;;;-2.30;43.70;;;;;;5057987;28;20303;-63
2022/01/15 04:30:08;;;;;;;111.93;34.70;;;-2.40;43.80;;;;;;5054600;28;20045;-61
2022/01/15 04:32:37;;;;;;;86.13;37.03;;;-2.50;43.00;;;;;;5060547;28;20135;-62
2022/01/15 04:35:06;;;;;;;72.05;32.90;;;-2.50;43.30;;;;;;5056572;28;20067;-62
2022/01/15 04:37:38;;;;;;;110.65;35.20;;;-2.50;44.00;;;;;;5057593;28;20045;-61
2022/01/15 04:40:08;;;;;;;68.97;32.45;;;-2.50;44.00;;;;;;5054598;28;20037;-62
2022/01/15 04:42:36;;;;;;;72.35;32.20;;;-2.70;43.90;;;;;;5056904;28;20147;-62
2022/01/15 04:45:07;;;;;;;143.90;38.90;;;-2.60;44.00;;;;;;5054457;28;20029;-62
2022/01/15 04:47:37;;;;;;;119.13;38.10;;;-2.60;44.00;;;;;;5054820;28;20069;-62
2022/01/15 04:50:07;;;;;;;144.13;38.72;;;-2.60;44.00;;;;;;5055833;28;20106;-62
2022/01/15 04:52:38;;;;;;;66.97;33.30;;;-2.60;44.00;;;;;;5060186;28;20082;-62
2022/01/15 04:55:07;;;;;;;134.23;37.20;;;-2.60;44.00;;;;;;5058605;28;20783;-62
2022/01/15 04:57:35;;;;;;;107.47;35.35;;;-2.70;43.90;;;;;;5058939;28;20119;-62
2022/01/15 05:00:05;;;;;;;96.07;33.95;;;-2.70;44.00;;;;;;5056965;28;20033;-62
2022/01/15 05:02:33;;;;;;;68.57;31.27;;;-2.70;44.40;;;;;;5060837;28;20131;-63
2022/01/15 05:05:03;;;;;;;127.75;35.25;;;-2.70;44.80;;;;;;5051595;28;20040;-62
2022/01/15 05:07:31;;;;;;;68.88;32.53;;;-2.70;44.60;;;;;;5059454;28;20568;-62
2022/01/15 05:09:59;;;;;;;165.80;35.92;;;-2.80;45.00;;;;;;5048830;28;20048;-62
2022/01/15 05:12:31;;;;;;;100.38;32.38;;;-2.90;44.70;;;;;;5055890;28;20101;-62
2022/01/15 05:14:59;;;;;;;80.30;33.72;;;-2.90;44.90;;;;;;5059497;28;20742;-62
2022/01/15 05:17:27;;;;;;;97.13;34.20;;;-2.90;45.00;;;;;;5059619;28;20113;-63
2022/01/15 05:19:55;;;;;;;95.32;34.38;;;-2.90;45.00;;;;;;5050070;28;20041;-61
2022/01/15 05:22:24;;;;;;;107.78;36.30;;;-3.00;45.10;;;;;;5055806;28;20039;-62
2022/01/15 05:24:53;;;;;;;134.00;36.85;;;-3.00;45.40;;;;;;5050120;28;20041;-62
2022/01/15 05:27:21;;;;;;;149.05;36.55;;;-3.00;45.90;;;;;;5057143;28;20082;-62
2022/01/15 05:29:49;;;;;;;120.30;37.13;;;-3.10;46.20;;;;;;5053295;28;20127;-62
2022/01/15 05:32:19;;;;;;;130.20;38.28;;;-3.10;46.20;;;;;;5059771;28;20078;-62
2022/01/15 05:34:48;;;;;;;190.75;40.47;;;-3.00;46.70;;;;;;5063229;28;20040;-62
2022/01/15 05:37:17;;;;;;;193.68;40.08;;;-2.90;47.10;;;;;;5056804;28;20048;-62
2022/01/15 05:39:46;;;;;;;146.30;38.47;;;-3.10;46.80;;;;;;5050540;28;20044;-62
2022/01/15 05:42:14;;;;;;;84.40;33.50;;;-2.90;47.50;;;;;;5057680;28;20358;-62
2022/01/15 05:44:44;;;;;;;220.13;42.75;;;-2.90;47.60;;;;;;5058031;28;20052;-62
2022/01/15 05:47:12;;;;;;;152.70;39.05;;;-2.90;47.70;;;;;;5059470;28;20127;-62
2022/01/15 05:49:42;;;;;;;214.75;41.72;;;-3.00;47.70;;;;;;5053061;28;20043;-62
2022/01/15 05:52:10;;;;;;;239.70;41.35;;;-3.10;47.60;;;;;;5058725;28;20511;-62
2022/01/15 05:54:38;;;;;;;407.27;52.75;;;-3.10;47.60;;;;;;5052511;28;20048;-62
2022/01/15 05:57:08;;;;;;;178.43;42.67;;;-3.10;47.60;;;;;;5054806;28;20127;-62
2022/01/15 05:59:36;;;;;;;226.45;43.42;;;-3.00;47.70;;;;;;5049284;28;20032;-62
2022/01/15 06:02:08;;;;;;;93.45;36.20;;;-3.00;47.80;;;;;;5050086;28;20140;-61
2022/01/15 06:04:36;;;;;;;88.00;37.22;;;-3.00;47.70;;;;;;5058494;28;20144;-62
2022/01/15 06:07:06;;;;;;;307.38;47.67;;;-3.20;47.50;;;;;;5051102;28;20037;-62
2022/01/15 06:09:34;;;;;;;126.30;39.30;;;-3.00;47.80;;;;;;5054500;28;20060;-62
2022/01/15 06:12:02;;;;;;;202.93;43.28;;;-2.90;47.90;;;;;;5058461;28;20076;-63
2022/01/15 06:14:31;;;;;;;126.03;38.03;;;-2.90;48.10;;;;;;5058666;28;20068;-62
2022/01/15 06:17:00;;;;;;;156.27;39.83;;;-3.10;47.60;;;;;;5057207;28;20151;-61
2022/01/15 06:19:28;;;;;;;184.32;39.22;;;-3.10;47.80;;;;;;5054533;28;20539;-62
2022/01/15 06:21:57;;;;;;;122.68;34.75;;;-3.00;47.90;;;;;;5056161;28;20052;-62
2022/01/15 06:24:25;;;;;;;191.52;42.90;;;-2.90;48.20;;;;;;5059735;28;20066;-62
2022/01/15 06:26:53;;;;;;;223.10;44.22;;;-3.00;48.10;;;;;;5056595;28;20036;-63
2022/01/15 06:29:21;;;;;;;136.82;40.53;;;-2.90;48.40;;;;;;5052351;28;20135;-62
2022/01/15 06:31:52;;;;;;;92.03;35.15;;;-3.00;48.40;;;;;;5054396;28;20094;-62
2022/01/15 06:34:21;;;;;;;101.25;34.58;;;-2.90;48.50;;;;;;5056599;28;20539;-63
2022/01/15 06:36:50;;;;;;;141.98;36.72;;;-2.90;48.50;;;;;;5060254;28;20082;-62
2022/01/15 06:39:18;;;;;;;86.18;35.22;;;-2.90;48.50;;;;;;5057395;28;20095;-62
2022/01/15 06:41:46;;;;;;;120.60;35.00;;;-3.00;48.50;;;;;;5059097;28;20044;-62
2022/01/15 06:44:14;;;;;;;103.47;36.47;;;-3.10;48.20;;;;;;5063357;28;20680;-62
2022/01/15 06:46:42;;;;;;;142.15;36.40;;;-3.10;48.30;;;;;;5056789;28;20563;-63
2022/01/15 06:49:12;;;;;;;100.43;35.58;;;-3.00;48.40;;;;;;5057160;28;20117;-63
2022/01/15 06:51:40;;;;;;;104.78;36.60;;;-2.90;48.70;;;;;;5063494;28;20122;-62
2022/01/15 06:54:08;;;;;;;102.13;34.35;;;-2.90;48.90;;;;;;5061979;28;20048;-63
2022/01/15 06:56:35;;;;;;;76.68;33.10;;;-2.90;49.00;;;;;;5060630;28;20116;-62
2022/01/15 06:59:04;;;;;;;71.43;34.33;;;-2.80;49.10;;;;;;5057361;28;20150;-62
2022/01/15 07:01:32;;;;;;;110.53;35.92;;;-2.80;49.10;;;;;;5059228;28;20756;-62
2022/01/15 07:04:01;;;;;;;76.32;32.13;;;-2.90;49.10;;;;;;5057029;28;20041;-62
2022/01/15 07:06:31;;;;;;;78.43;33.33;;;-2.90;49.10;;;;;;5054269;28;20056;-62
2022/01/15 07:08:59;;;;;;;124.57;34.97;;;-2.80;49.20;;;;;;5055259;28;20132;-62
2022/01/15 07:11:27;;;;;;;113.15;35.22;;;-2.80;49.10;;;;;;5056881;28;20076;-63
2022/01/15 07:13:55;;;;;;;95.20;36.97;;;-2.80;49.20;;;;;;5061964;28;20080;-62
2022/01/15 07:16:22;;;;;;;71.93;35.28;;;-2.70;49.40;;;;;;5062765;28;20128;-63
2022/01/15 07:18:55;;;;;;;87.05;36.65;;;-2.60;49.60;;;;;;5058175;28;20064;-61
2022/01/15 07:21:23;;;;;;;178.70;42.92;;;-2.70;49.50;;;;;;5056390;28;20057;-62
2022/01/15 07:23:52;;;;;;;59.60;32.65;;;-2.70;49.50;;;;;;5061043;28;20036;-61
2022/01/15 07:26:20;;;;;;;94.05;36.25;;;-2.70;49.60;;;;;;5053824;28;20079;-62
2022/01/15 07:28:48;;;;;;;137.82;37.13;;;-2.70;49.60;;;;;;5058414;28;20068;-62
2022/01/15 07:31:17;;;;;;;64.40;33.05;;;-2.70;49.60;;;;;;5054886;28;20040;-62
2022/01/15 07:33:45;;;;;;;83.40;34.13;;;-2.60;49.70;;;;;;5059909;28;20103;-62
2022/01/15 07:36:13;;;;;;;86.63;35.70;;;-2.50;49.90;;;;;;5059419;28;20048;-62
2022/01/15 07:38:41;;;;;;;83.65;36.40;;;-2.50;50.00;;;;;;5052781;28;20048;-62
2022/01/15 07:41:13;;;;;;;118.35;39.30;;;-2.40;50.20;;;;;;5054406;28;20052;-62
2022/01/15 07:43:42;;;;;;;77.22;35.95;;;-2.40;50.20;;;;;;5058635;28;20055;-62
2022/01/15 07:46:10;;;;;;;71.88;35.70;;;-2.50;50.10;;;;;;5057338;28;20044;-62
2022/01/15 07:48:38;;;;;;;137.02;38.75;;;-2.70;50.00;;;;;;5060639;28;20060;-62
2022/01/15 07:51:08;;;;;;;93.05;36.78;;;-2.70;49.90;;;;;;5059066;28;20408;-62
2022/01/15 07:53:36;;;;;;;91.35;37.15;;;-2.60;50.10;;;;;;5057454;28;20044;-62
2022/01/15 07:56:07;;;;;;;108.75;36.83;;;-2.50;50.20;;;;;;5059889;28;20044;-63
2022/01/15 07:58:38;;;;;;;97.47;36.33;;;-2.50;50.40;;;;;;5059872;28;20069;-63
2022/01/15 08:01:09;;;;;;;124.30;36.90;;;-2.50;50.40;;;;;;5050574;28;20538;-63
2022/01/15 08:03:37;;;;;;;106.47;37.20;;;-2.50;50.50;;;;;;5061296;28;20124;-62
2022/01/15 08:06:09;;;;;;;99.38;36.03;;;-2.50;50.50;;;;;;5052095;28;20048;-62
2022/01/15 08:08:37;;;;;;;150.32;38.35;;;-2.50;50.40;;;;;;5054253;28;20143;-63
2022/01/15 08:11:05;;;;;;;154.25;38.53;;;-2.50;50.40;;;;;;5056688;28;20508;-62
2022/01/15 08:13:33;;;;;;;175.85;38.45;;;-2.40;50.60;;;;;;5058155;28;20064;-62
2022/01/15 08:16:04;;;;;;;134.43;35.67;;;-2.30;50.70;;;;;;5056315;28;20040;-62
2022/01/15 08:18:33;;;;;;;105.78;35.78;;;-2.30;50.70;;;;;;5055210;28;20112;-62
2022/01/15 08:21:03;;;;;;;116.78;34.58;;;-2.30;50.60;;;;;;5051084;28;20519;-62
2022/01/15 08:23:30;;;;;;;96.75;35.22;;;-2.40;50.10;;;;;;5061125;28;20037;-62
2022/01/15 08:25:59;;;;;;;149.05;37.78;;;-2.40;50.00;;;;;;5054263;28;20131;-63
2022/01/15 08:28:27;;;;;;;102.70;32.75;;;-2.50;50.30;;;;;;5052609;28;20057;-61
2022/01/15 08:30:57;;;;;;;74.10;30.27;;;-2.50;50.00;;;;;;5055858;28;20132;-63
2022/01/15 08:33:26;;;;;;;72.22;29.50;;;-2.40;50.30;;;;;;5059633;28;20056;-62
2022/01/15 08:35:54;;;;;;;116.95;31.63;;;-2.60;49.50;;;;;;5057726;28;20181;-62
2022/01/15 08:38:22;;;;;;;85.72;30.30;;;-2.70;49.30;;;;;;5057504;28;20485;-62
2022/01/15 08:40:50;;;;;;;124.55;33.08;;;-2.40;50.00;;;;;;5055484;28;20960;-61
2022/01/15 08:43:18;;;;;;;71.10;30.60;;;-2.50;50.00;;;;;;5054844;28;20080;-62
2022/01/15 08:45:47;;;;;;;146.43;33.97;;;-2.60;50.10;;;;;;5054412;28;20048;-61
2022/01/15 08:48:19;;;;;;;79.60;29.98;;;-2.40;50.50;;;;;;5054676;28;20049;-62
2022/01/15 08:50:50;;;;;;;67.03;28.20;;;-2.30;50.60;;;;;;5058559;28;20076;-62
2022/01/15 08:53:20;;;;;;;80.90;29.30;;;-2.30;50.30;;;;;;5060580;28;20234;-62
2022/01/15 08:55:49;;;;;;;71.43;30.10;;;-2.10;51.60;;;;;;5057542;28;20072;-63
2022/01/15 08:58:17;;;;;;;75.07;30.70;;;-2.10;50.40;;;;;;5056319;28;20231;-62
2022/01/15 09:00:45;;;;;;;55.63;30.17;;;-2.10;50.10;;;;;;5050928;28;20052;-62
2022/01/15 09:03:13;;;;;;;103.13;31.52;;;-2.10;49.70;;;;;;5055088;28;20420;-62
2022/01/15 09:05:41;;;;;;;69.43;28.45;;;-2.20;49.80;;;;;;5057660;28;20114;-62
2022/01/15 09:08:10;;;;;;;51.97;28.70;;;-2.20;48.50;;;;;;5051985;28;20045;-62
2022/01/15 09:10:42;;;;;;;59.80;29.42;;;-2.20;48.20;;;;;;5051649;28;20107;-62
2022/01/15 09:13:10;;;;;;;58.00;28.45;;;-2.20;48.90;;;;;;5060482;28;20052;-62
2022/01/15 09:15:39;;;;;;;63.47;29.42;;;-2.10;48.40;;;;;;5055723;28;20135;-61
2022/01/15 09:18:07;;;;;;;65.20;28.75;;;-1.90;49.50;;;;;;5053374;28;20503;-62
2022/01/15 09:20:35;;;;;;;74.93;29.55;;;-1.80;49.70;;;;;;5057039;28;20072;-62
2022/01/15 09:23:03;;;;;;;63.88;27.65;;;-1.80;49.50;;;;;;5053023;28;20087;-62
2022/01/15 09:25:32;;;;;;;59.40;26.95;;;-1.70;49.70;;;;;;5056334;28;20052;-61
2022/01/15 09:30:46;;;;;;;154.25;32.88;;;-2.20;45.70;;;;;;5050777;28;20416;-61
2022/01/15 09:33:16;;;;;;;68.57;27.50;;;-1.90;47.40;;;;;;5058415;28;20041;-61
2022/01/15 09:35:44;;;;;;;67.78;27.88;;;-1.80;46.50;;;;;;5050516;28;20052;-62
2022/01/15 09:38:16;;;;;;;44.47;25.27;;;-1.80;47.90;;;;;;5054246;28;20048;-62
2022/01/15 09:40:45;;;;;;;80.07;28.20;;;-1.90;45.90;;;;;;5053888;28;20115;-61
2022/01/15 09:43:15;;;;;;;99.57;30.73;;;-1.80;47.50;;;;;;5055685;28;20123;-62
2022/01/15 09:45:45;;;;;;;70.45;28.10;;;-1.80;45.40;;;;;;5054610;28;20037;-62
2022/01/15 09:48:15;;;;;;;64.15;27.65;;;-1.70;47.00;;;;;;5053954;28;20037;-61
2022/01/15 09:50:46;;;;;;;88.35;29.65;;;-1.50;48.30;;;;;;5053501;28;20497;-61
2022/01/15 09:53:17;;;;;;;132.90;31.90;;;-1.30;48.60;;;;;;5055997;28;20141;-62
2022/01/15 09:55:48;;;;;;;128.18;33.78;;;-1.30;47.50;;;;;;5057512;28;20600;-62
2022/01/15 09:58:17;;;;;;;125.75;32.22;;;-1.10;46.80;;;;;;5053871;28;20045;-62
2022/01/15 10:00:46;;;;;;;135.77;34.05;;;-1.20;46.60;;;;;;5054484;28;20048;-62
2022/01/15 10:03:15;;;;;;;101.45;31.65;;;-1.10;46.10;;;;;;5051873;28;20049;-62
2022/01/15 10:05:43;;;;;;;131.10;34.22;;;-1.10;46.80;;;;;;5056231;28;20522;-62
2022/01/15 10:08:13;;;;;;;95.70;32.00;;;-1.20;46.50;;;;;;5053117;28;20504;-62
2022/01/15 10:10:47;;;;;;;80.50;31.85;;;-1.10;46.30;;;;;;5057783;28;20079;-61
2022/01/15 10:13:17;;;;;;;;;;;-1.20;41.90;;;;;;5061052;28;20523;-62
2022/01/15 10:15:47;;;;;;;68.55;31.33;;;-1.20;43.00;;;;;;5062682;28;19952;-61
2022/01/15 10:18:23;;;;;;;116.63;32.28;;;-1.20;45.20;;;;;;5054425;28;20056;-62
2022/01/15 10:20:53;;;;;;;107.53;30.88;;;-1.00;45.40;;;;;;5059390;28;20605;-62
2022/01/15 10:23:23;;;;;;;107.00;31.70;;;-1.00;45.20;;;;;;5059795;28;20076;-62
2022/01/15 10:26:13;;;;;;;93.32;30.02;;;-1.00;44.70;;;;;;5050627;28;20132;-62
2022/01/15 10:28:55;;;;;;;82.00;32.45;;;-0.80;45.40;;;;;;5061210;28;20094;-62
2022/01/15 10:31:25;;;;;;;64.15;31.38;;;-1.10;41.60;;;;;;5058935;28;20087;-62
2022/01/15 10:33:55;;;;;;;101.55;28.88;;;-1.10;43.30;;;;;;5059468;28;20067;-63
2022/01/15 10:36:27;;;;;;;170.45;37.28;;;-1.10;40.20;;;;;;5055404;28;20049;-61
2022/01/15 10:39:13;;;;;;;100.53;29.02;;;-1.30;40.60;;;;;;5058306;28;20125;-61
2022/01/15 10:41:41;;;;;;;87.22;30.05;;;-1.30;43.40;;;;;;5051468;28;20052;-62
2022/01/15 10:44:30;;;;;;;82.25;29.00;;;-1.40;43.20;;;;;;5063885;28;20103;-62
2022/01/15 10:47:05;;;;;;;101.50;29.65;;;-1.20;43.90;;;;;;5059860;28;20052;-62
2022/01/15 10:49:34;;;;;;;88.00;28.45;;;-1.10;44.90;;;;;;5059929;28;20049;-62
2022/01/15 10:52:10;;;;;;;133.65;30.27;;;-0.80;45.50;;;;;;5060048;28;20083;-62
2022/01/15 10:54:53;;;;;;;125.35;30.10;;;-0.90;46.50;;;;;;5056475;28;20048;-62
2022/01/15 10:57:24;;;;;;;71.28;28.80;;;-0.60;45.50;;;;;;5058729;28;20040;-61
2022/01/15 11:00:13;;;;;;;77.43;28.90;;;-0.70;44.20;;;;;;5058267;28;20122;-63
2022/01/15 11:02:43;;;;;;;70.50;29.67;;;-0.90;40.90;;;;;;5062652;28;20055;-62
2022/01/15 11:05:30;;;;;;;96.60;29.40;;;-0.60;44.40;;;;;;5063312;28;20683;-61
2022/01/15 11:08:13;;;;;;;114.72;29.42;;;-0.40;43.30;;;;;;5055392;28;20122;-61
2022/01/15 11:10:44;;;;;;;56.95;27.90;;;-0.50;43.70;;;;;;5059008;28;20086;-62
2022/01/15 11:13:14;;;;;;;48.53;28.20;;;-0.40;41.90;;;;;;5059183;28;20160;-60
2022/01/15 11:15:46;;;;;;;48.85;26.40;;;-0.60;36.80;;;;;;5058150;28;20068;-62
2022/01/15 11:18:18;;;;;;;44.67;24.92;;;-0.30;40.30;;;;;;5060347;28;20055;-62
2022/01/15 11:20:48;;;;;;;51.28;25.13;;;-0.60;35.60;;;;;;5056092;28;20053;-62
2022/01/15 11:23:19;;;;;;;52.97;26.00;;;-0.50;37.90;;;;;;5062590;28;20131;-61
2022/01/15 11:25:47;;;;;;;48.42;25.02;;;-0.40;39.90;;;;;;5059992;28;20110;-62
2022/01/15 11:28:16;;;;;;;47.70;26.90;;;-0.60;37.60;;;;;;5057647;28;20084;-62
2022/01/15 11:30:47;;;;;;;44.63;27.25;;;-0.60;38.50;;;;;;5059445;28;20044;-62
2022/01/15 11:33:21;;;;;;;44.67;26.52;;;-0.30;40.40;;;;;;5062067;28;20049;-63
2022/01/15 11:35:50;;;;;;;53.95;26.73;;;-0.30;36.80;;;;;;5059068;28;20122;-62
2022/01/15 11:38:44;;;;;;;61.55;27.40;;;-0.30;37.80;;;;;;5060446;28;20102;-62
2022/01/15 11:41:38;;;;;;;47.72;25.33;;;-0.20;35.60;;;;;;5057700;28;20132;-62
2022/01/15 11:44:08;;;;;;;61.25;27.33;;;-0.10;39.30;;;;;;5060709;28;20086;-61
2022/01/15 11:46:44;;;;;;;96.78;26.98;;;-0.20;35.40;;;;;;5058168;28;20045;-63
2022/01/15 11:49:35;;;;;;;95.97;26.67;;;-0.30;39.00;;;;;;5058020;28;20048;-61
2022/01/15 11:52:43;;;;;;;46.38;24.85;;;-0.30;38.30;;;;;;5059678;28;20063;-62
2022/01/15 11:55:20;;;;;;;84.05;26.85;;;-0.30;37.80;;;;;;5057007;28;20110;-62
2022/01/15 11:57:51;;;;;;;138.88;28.58;;;-0.50;37.70;;;;;;5055478;28;20041;-62
2022/01/15 12:00:26;;;;;;;81.70;25.40;;;-0.40;40.60;;;;;;5055744;28;20040;-62
2022/01/15 12:03:16;;;;;;;124.65;28.00;;;-0.30;42.80;;;;;;5055363;28;20525;-62
2022/01/15 12:05:47;;;;;;;62.13;26.75;;;-0.30;38.50;;;;;;5054487;28;20049;-62
2022/01/15 12:08:33;;;;;;;58.42;28.10;;;-0.30;42.90;;;;;;5059874;28;20518;-62
2022/01/15 12:11:07;;;;;;;129.60;30.00;;;-0.10;43.00;;;;;;5055468;28;20120;-62
2022/01/15 12:13:48;;;;;;;148.77;32.20;;;-0.60;39.00;;;;;;5054816;28;20036;-62
2022/01/15 12:16:26;;;;;;;174.70;37.05;;;-0.40;40.90;;;;;;5056331;28;20408;-62
2022/01/15 12:18:58;;;;;;;272.63;43.45;;;-0.40;42.10;;;;;;5054760;28;20057;-62
2022/01/15 12:21:49;;;;;;;75.40;33.15;;;-0.40;44.00;;;;;;5056521;28;20064;-62
2022/01/15 12:24:38;;;;;;;174.77;36.05;;;-0.40;45.40;;;;;;5053168;28;20040;-63
2022/01/15 12:27:10;;;;;;;167.95;35.35;;;-0.30;45.80;;;;;;5056932;28;20065;-62
2022/01/15 12:29:39;;;;;;;73.15;33.35;;;-0.20;45.40;;;;;;5053535;28;20128;-62
2022/01/15 12:32:08;;;;;;;129.18;34.80;;;-0.20;44.10;;;;;;5057539;28;20079;-62
2022/01/15 12:34:38;;;;;;;91.93;32.85;;;-0.10;44.70;;;;;;5054741;28;20049;-61
2022/01/15 12:37:13;;;;;;;137.73;33.97;;;0.00;46.20;;;;;;5056607;28;20045;-61
2022/01/15 12:39:41;;;;;;;89.10;34.00;;;-0.10;42.20;;;;;;5054524;28;20041;-61
2022/01/15 12:42:11;;;;;;;102.55;34.38;;;0.10;46.10;;;;;;5058702;28;20129;-61
2022/01/15 12:44:44;;;;;;;66.07;33.55;;;0.20;47.00;;;;;;5060819;28;20127;-62
2022/01/15 12:47:13;;;;;;;108.28;35.35;;;0.30;45.60;;;;;;5057494;28;20089;-62
2022/01/15 12:49:49;;;;;;;78.72;32.03;;;0.50;45.10;;;;;;5051906;28;20048;-62
2022/01/15 12:52:25;;;;;;;120.25;37.17;;;0.50;44.00;;;;;;5057727;28;20045;-61
2022/01/15 12:54:57;;;;;;;120.25;33.92;;;0.40;43.10;;;;;;5052340;28;20170;-62
2022/01/15 12:57:46;;;;;;;61.08;32.33;;;0.40;43.30;;;;;;5057360;28;20040;-62
2022/01/15 13:00:19;;;;;;;64.45;30.85;;;0.30;42.80;;;;;;5056575;28;20071;-63